createdAt,value
2017-06-25T00:00:47.256Z,23.40
2017-06-25T00:03:15.903Z,23.40
2017-06-25T00:05:44.132Z,23.40
2017-06-25T00:08:12.492Z,23.50
2017-06-25T00:10:40.743Z,23.60
2017-06-25T00:13:08.976Z,23.70
2017-06-25T00:15:37.251Z,23.70
2017-06-25T00:18:05.484Z,23.50
2017-06-25T00:20:33.715Z,23.50
2017-06-25T00:23:01.980Z,23.50
2017-06-25T00:25:30.220Z,23.60
2017-06-25T00:27:58.850Z,23.50
2017-06-25T00:30:27.151Z,23.50
2017-06-25T00:32:55.383Z,23.40
2017-06-25T00:35:23.624Z,23.30
2017-06-25T00:37:52.560Z,23.00
2017-06-25T00:40:20.779Z,23.00
2017-06-25T00:42:49.055Z,22.90
2017-06-25T00:45:17.335Z,22.80
2017-06-25T00:47:45.959Z,22.70
2017-06-25T00:50:14.201Z,22.70
2017-06-25T00:52:48.908Z,22.70
2017-06-25T00:55:17.144Z,22.70
2017-06-25T00:57:45.405Z,22.60
2017-06-25T01:00:13.684Z,22.60
2017-06-25T01:02:42.215Z,22.40
2017-06-25T01:05:10.701Z,22.30
2017-06-25T01:07:38.972Z,22.30
2017-06-25T01:10:07.224Z,22.30
2017-06-25T01:12:35.457Z,22.20
2017-06-25T01:15:03.829Z,22.30
2017-06-25T01:17:32.460Z,22.20
2017-06-25T01:20:00.731Z,22.20
2017-06-25T01:22:29.007Z,22.20
2017-06-25T01:24:57.243Z,22.30
2017-06-25T01:27:25.916Z,22.30
2017-06-25T01:29:54.575Z,22.40
2017-06-25T01:32:22.824Z,22.40
2017-06-25T01:34:51.060Z,22.40
2017-06-25T01:37:19.833Z,22.20
2017-06-25T01:39:48.065Z,22.30
2017-06-25T01:42:16.315Z,22.10
2017-06-25T01:44:44.589Z,22.10
2017-06-25T01:47:12.823Z,22.00
2017-06-25T01:49:41.054Z,22.00
2017-06-25T01:52:09.340Z,22.10
2017-06-25T01:54:37.575Z,22.30
2017-06-25T01:57:05.820Z,22.40
2017-06-25T01:59:34.082Z,22.40
2017-06-25T02:02:02.316Z,22.40
2017-06-25T02:04:30.555Z,22.50
2017-06-25T02:06:59.377Z,22.50
2017-06-25T02:09:27.920Z,22.60
2017-06-25T02:11:57.178Z,22.50
2017-06-25T02:14:26.673Z,22.60
2017-06-25T02:16:55.658Z,22.60
2017-06-25T02:19:25.029Z,22.60
2017-06-25T02:21:53.539Z,22.60
2017-06-25T02:24:22.159Z,22.50
2017-06-25T02:26:50.401Z,22.50
2017-06-25T02:29:18.674Z,22.40
2017-06-25T02:31:47.303Z,22.60
2017-06-25T02:34:15.577Z,22.50
2017-06-25T02:36:43.862Z,22.40
2017-06-25T02:39:12.108Z,22.20
2017-06-25T02:41:40.412Z,22.20
2017-06-25T02:44:08.652Z,22.10
2017-06-25T02:46:36.887Z,22.00
2017-06-25T02:49:05.132Z,22.00
2017-06-25T02:51:33.423Z,22.00
2017-06-25T02:54:01.668Z,21.90
2017-06-25T02:56:29.909Z,21.80
2017-06-25T02:58:58.584Z,21.80
2017-06-25T03:01:26.824Z,21.80
2017-06-25T03:03:55.074Z,21.80
2017-06-25T03:06:23.498Z,22.00
2017-06-25T03:08:51.798Z,22.00
2017-06-25T03:11:20.664Z,21.70
2017-06-25T03:13:48.950Z,21.70
2017-06-25T03:16:17.194Z,21.70
2017-06-25T03:18:45.442Z,21.70
2017-06-25T03:21:13.697Z,21.60
2017-06-25T03:23:41.936Z,21.60
2017-06-25T03:26:10.592Z,21.50
2017-06-25T03:28:38.870Z,21.60
2017-06-25T03:31:07.112Z,21.40
2017-06-25T03:33:35.361Z,21.30
2017-06-25T03:36:04.031Z,21.30
2017-06-25T03:38:32.269Z,21.30
2017-06-25T03:41:00.507Z,21.50
2017-06-25T03:43:29.196Z,21.50
2017-06-25T03:45:57.826Z,21.40
2017-06-25T03:48:26.068Z,21.40
2017-06-25T03:50:54.716Z,21.10
2017-06-25T03:53:22.982Z,20.90
2017-06-25T03:55:51.205Z,20.90
2017-06-25T03:58:19.496Z,20.80
2017-06-25T04:00:47.743Z,21.00
2017-06-25T04:03:16.388Z,20.90
2017-06-25T04:05:44.673Z,20.90
2017-06-25T04:08:12.903Z,20.70
2017-06-25T04:10:41.140Z,20.80
2017-06-25T04:13:09.411Z,20.90
2017-06-25T04:15:37.645Z,20.90
2017-06-25T04:18:05.876Z,21.00
2017-06-25T04:20:34.645Z,21.00
2017-06-25T04:23:02.892Z,21.00
2017-06-25T04:25:31.125Z,20.90
2017-06-25T04:27:59.807Z,20.90
2017-06-25T04:30:28.043Z,20.90
2017-06-25T04:32:56.284Z,21.00
2017-06-25T04:35:24.561Z,21.10
2017-06-25T04:37:52.792Z,21.20
2017-06-25T04:40:21.041Z,21.20
2017-06-25T04:42:49.314Z,21.30
2017-06-25T04:45:17.810Z,21.20
2017-06-25T04:47:46.055Z,21.30
2017-06-25T04:50:14.333Z,21.30
2017-06-25T04:52:42.843Z,21.40
2017-06-25T04:55:11.080Z,21.50
2017-06-25T04:57:39.361Z,21.50
2017-06-25T05:00:07.879Z,21.40
2017-06-25T05:02:36.528Z,21.20
2017-06-25T05:05:05.039Z,21.20
2017-06-25T05:07:33.572Z,21.10
2017-06-25T05:10:01.820Z,21.00
2017-06-25T05:12:30.487Z,21.20
2017-06-25T05:14:58.753Z,21.20
2017-06-25T05:17:26.983Z,21.30
2017-06-25T05:19:55.644Z,21.00
2017-06-25T05:22:24.508Z,21.20
2017-06-25T05:24:52.872Z,21.20
2017-06-25T05:27:21.218Z,21.20
2017-06-25T05:29:49.456Z,21.40
2017-06-25T05:32:17.694Z,21.70
2017-06-25T05:34:46.039Z,21.80
2017-06-25T05:37:14.256Z,21.90
2017-06-25T05:39:42.507Z,22.00
2017-06-25T05:42:11.186Z,22.10
2017-06-25T05:44:39.431Z,22.10
2017-06-25T05:47:08.060Z,22.00
2017-06-25T05:49:36.355Z,22.00
2017-06-25T05:52:04.581Z,21.80
2017-06-25T05:54:32.821Z,21.90
2017-06-25T05:57:01.427Z,21.90
2017-06-25T05:59:30.171Z,22.10
2017-06-25T06:01:58.959Z,22.10
2017-06-25T06:04:27.207Z,22.10
2017-06-25T06:06:55.451Z,22.00
2017-06-25T06:09:24.087Z,21.90
2017-06-25T06:11:52.370Z,21.90
2017-06-25T06:14:20.606Z,22.00
2017-06-25T06:16:48.848Z,22.00
2017-06-25T06:19:17.155Z,22.10
2017-06-25T06:21:45.392Z,22.30
2017-06-25T06:24:13.648Z,22.60
2017-06-25T06:26:41.905Z,22.80
2017-06-25T06:29:10.275Z,23.00
2017-06-25T06:31:38.647Z,23.00
2017-06-25T06:34:06.945Z,22.00
2017-06-25T06:36:35.187Z,20.20
2017-06-25T06:39:03.447Z,19.80
2017-06-25T06:41:32.149Z,19.20
2017-06-25T06:44:00.391Z,19.20
2017-06-25T06:46:28.666Z,19.20
2017-06-25T06:48:56.952Z,18.80
2017-06-25T06:51:25.282Z,18.50
2017-06-25T06:53:53.519Z,18.50
2017-06-25T06:56:21.822Z,18.40
2017-06-25T06:58:50.068Z,18.40
2017-06-25T07:01:18.744Z,18.60
2017-06-25T07:03:47.044Z,18.60
2017-06-25T07:06:15.308Z,18.70
2017-06-25T07:08:43.963Z,19.00
2017-06-25T07:11:12.554Z,19.00
2017-06-25T07:13:41.158Z,18.80
2017-06-25T07:16:09.375Z,19.00
2017-06-25T07:18:37.638Z,19.40
2017-06-25T07:21:05.955Z,19.80
2017-06-25T07:23:34.178Z,20.10
2017-06-25T07:26:02.484Z,20.50
2017-06-25T07:28:30.724Z,20.90
2017-06-25T07:30:59.367Z,21.50
2017-06-25T07:33:28.127Z,21.60
2017-06-25T07:35:56.402Z,21.60
2017-06-25T07:38:25.364Z,21.70
2017-06-25T07:40:54.027Z,21.70
2017-06-25T07:43:22.669Z,20.90
2017-06-25T07:45:51.183Z,20.90
2017-06-25T07:48:19.543Z,20.50
2017-06-25T07:50:47.783Z,20.60
2017-06-25T07:53:16.056Z,21.00
2017-06-25T07:55:44.322Z,21.50
2017-06-25T07:58:12.563Z,21.80
2017-06-25T08:00:40.878Z,22.20
2017-06-25T08:03:09.165Z,22.40
2017-06-25T08:05:37.790Z,22.50
2017-06-25T08:08:06.053Z,22.70
2017-06-25T08:10:34.431Z,22.70
2017-06-25T08:13:02.705Z,22.80
2017-06-25T08:15:30.994Z,22.90
2017-06-25T08:17:59.258Z,23.10
2017-06-25T08:20:27.484Z,23.40
2017-06-25T08:22:56.131Z,22.00
2017-06-25T08:25:24.405Z,22.00
2017-06-25T08:27:52.639Z,21.90
2017-06-25T08:30:21.017Z,21.80
2017-06-25T08:32:49.289Z,21.60
2017-06-25T08:35:17.531Z,21.40
2017-06-25T08:37:45.765Z,21.10
2017-06-25T08:40:14.169Z,20.60
2017-06-25T08:42:42.647Z,20.30
2017-06-25T08:45:10.863Z,20.50
2017-06-25T08:47:39.140Z,20.60
2017-06-25T08:50:07.388Z,20.40
2017-06-25T08:52:35.615Z,20.60
2017-06-25T08:55:03.929Z,20.60
2017-06-25T08:57:32.340Z,20.60
2017-06-25T09:00:00.975Z,20.90
2017-06-25T09:02:29.259Z,20.90
2017-06-25T09:04:58.675Z,20.80
2017-06-25T09:07:26.944Z,20.70
2017-06-25T09:09:55.229Z,20.60
2017-06-25T09:12:23.504Z,20.70
2017-06-25T09:14:51.732Z,20.60
2017-06-25T09:17:20.008Z,20.50
2017-06-25T09:19:48.241Z,20.50
2017-06-25T09:22:16.811Z,20.50
2017-06-25T09:24:45.287Z,20.80
2017-06-25T09:27:13.532Z,20.50
2017-06-25T09:29:41.763Z,20.50
2017-06-25T09:32:10.037Z,20.70
2017-06-25T09:34:38.271Z,20.30
2017-06-25T09:37:06.608Z,20.20
2017-06-25T09:39:35.028Z,20.30
2017-06-25T09:42:03.280Z,20.40
2017-06-25T09:44:31.515Z,20.30
2017-06-25T09:46:59.827Z,20.20
2017-06-25T09:49:28.077Z,19.90
2017-06-25T09:51:56.713Z,19.70
2017-06-25T09:54:25.027Z,19.70
2017-06-25T09:56:53.281Z,19.60
2017-06-25T09:59:21.519Z,19.50
2017-06-25T10:01:49.799Z,19.60
2017-06-25T10:04:18.022Z,19.60
2017-06-25T10:06:46.291Z,19.80
2017-06-25T10:09:14.567Z,19.90
2017-06-25T10:11:43.053Z,20.00
2017-06-25T10:14:11.325Z,20.30
2017-06-25T10:16:39.604Z,20.70
2017-06-25T10:19:08.182Z,21.00
2017-06-25T10:21:36.498Z,20.90
2017-06-25T10:24:04.829Z,20.90
2017-06-25T10:26:33.056Z,21.00
2017-06-25T10:29:01.296Z,21.10
2017-06-25T10:31:29.569Z,21.50
2017-06-25T10:33:57.812Z,21.90
2017-06-25T10:36:26.048Z,22.20
2017-06-25T10:38:54.728Z,21.90
2017-06-25T10:41:23.405Z,22.10
2017-06-25T10:43:51.784Z,22.10
2017-06-25T10:46:20.522Z,22.20
2017-06-25T10:48:48.760Z,22.40
2017-06-25T10:51:17.385Z,23.70
2017-06-25T10:53:45.661Z,23.70
2017-06-25T10:56:13.896Z,24.20
2017-06-25T10:58:42.751Z,24.20
2017-06-25T11:01:11.017Z,24.20
2017-06-25T11:03:39.246Z,23.40
2017-06-25T11:06:07.484Z,23.40
2017-06-25T11:08:35.747Z,23.60
2017-06-25T11:11:03.989Z,23.90
2017-06-25T11:13:32.252Z,23.80
2017-06-25T11:16:00.550Z,24.00
2017-06-25T11:18:28.785Z,24.10
2017-06-25T11:20:57.537Z,23.70
2017-06-25T11:23:25.821Z,23.80
2017-06-25T11:25:54.039Z,23.50
2017-06-25T11:28:22.269Z,23.70
2017-06-25T11:30:50.552Z,23.70
2017-06-25T11:33:18.788Z,22.90
2017-06-25T11:35:47.036Z,22.80
2017-06-25T11:38:15.299Z,23.10
2017-06-25T11:40:43.548Z,23.60
2017-06-25T11:43:11.784Z,23.50
2017-06-25T11:45:40.065Z,23.70
2017-06-25T11:48:08.301Z,24.20
2017-06-25T11:50:36.950Z,24.60
2017-06-25T11:53:06.658Z,24.60
2017-06-25T11:55:36.036Z,24.60
2017-06-25T11:58:04.271Z,24.60
2017-06-25T12:00:32.570Z,24.30
2017-06-25T12:03:00.792Z,23.90
2017-06-25T12:05:29.031Z,23.80
2017-06-25T12:07:57.285Z,23.60
2017-06-25T12:10:26.121Z,23.00
2017-06-25T12:12:54.362Z,23.00
2017-06-25T12:15:22.643Z,22.70
2017-06-25T12:17:50.879Z,22.50
2017-06-25T12:20:19.131Z,22.80
2017-06-25T12:22:47.409Z,23.80
2017-06-25T12:25:15.744Z,24.00
2017-06-25T12:27:43.993Z,24.20
2017-06-25T12:30:12.553Z,24.30
2017-06-25T12:32:40.794Z,24.30
2017-06-25T12:35:09.025Z,24.30
2017-06-25T12:37:37.684Z,24.50
2017-06-25T12:40:05.936Z,24.50
2017-06-25T12:42:34.172Z,24.50
2017-06-25T12:45:02.452Z,24.50
2017-06-25T12:47:30.720Z,24.70
2017-06-25T12:49:59.365Z,25.00
2017-06-25T12:52:27.616Z,25.00
2017-06-25T12:54:55.879Z,25.10
2017-06-25T12:57:24.108Z,25.20
2017-06-25T12:59:52.879Z,25.10
2017-06-25T13:02:21.106Z,25.00
2017-06-25T13:04:49.345Z,24.90
2017-06-25T13:07:17.604Z,24.90
2017-06-25T13:09:48.556Z,24.80
2017-06-25T13:12:16.900Z,24.70
2017-06-25T13:14:45.622Z,24.50
2017-06-25T13:17:14.380Z,24.40
2017-06-25T13:19:43.597Z,24.50
2017-06-25T13:22:12.740Z,24.60
2017-06-25T13:24:41.002Z,24.70
2017-06-25T13:27:09.410Z,24.60
2017-06-25T13:29:39.320Z,24.60
2017-06-25T13:32:08.701Z,24.60
2017-06-25T13:34:37.323Z,24.50
2017-06-25T13:37:06.199Z,24.50
2017-06-25T13:39:34.441Z,24.40
2017-06-25T13:42:05.197Z,24.50
2017-06-25T13:44:34.169Z,24.50
2017-06-25T13:47:02.810Z,24.30
2017-06-25T13:49:31.093Z,24.30
2017-06-25T13:51:59.591Z,24.20
2017-06-25T13:54:28.878Z,24.20
2017-06-25T13:56:57.100Z,24.30
2017-06-25T13:59:26.136Z,24.30
2017-06-25T14:01:54.408Z,24.20
2017-06-25T14:04:24.632Z,24.30
2017-06-25T14:06:52.955Z,24.50
2017-06-25T14:09:21.299Z,24.50
2017-06-25T14:11:49.525Z,24.40
2017-06-25T14:14:17.808Z,24.20
2017-06-25T14:16:46.745Z,24.30
2017-06-25T14:19:17.594Z,23.60
2017-06-25T14:21:49.326Z,23.70
2017-06-25T14:24:18.123Z,23.50
2017-06-25T14:26:46.357Z,23.90
2017-06-25T14:29:14.606Z,24.20
2017-06-25T14:31:43.292Z,24.20
2017-06-25T14:34:11.941Z,24.20
2017-06-25T14:36:40.212Z,24.20
2017-06-25T14:39:08.554Z,24.30
2017-06-25T14:41:36.800Z,24.50
2017-06-25T14:44:05.038Z,24.40
2017-06-25T14:46:33.313Z,24.50
2017-06-25T14:49:01.553Z,24.60
2017-06-25T14:51:29.876Z,24.70
2017-06-25T14:53:58.145Z,24.80
2017-06-25T14:56:26.417Z,24.70
2017-06-25T14:58:54.667Z,24.70
2017-06-25T15:01:22.944Z,24.90
2017-06-25T15:03:51.386Z,25.10
2017-06-25T15:06:19.671Z,25.30
2017-06-25T15:08:48.333Z,25.70
2017-06-25T15:11:16.603Z,25.60
2017-06-25T15:13:44.841Z,25.80
2017-06-25T15:16:13.240Z,25.80
2017-06-25T15:18:41.633Z,26.00
2017-06-25T15:21:09.876Z,26.10
2017-06-25T15:23:39.137Z,26.20
2017-06-25T15:26:07.366Z,26.30
2017-06-25T15:28:36.311Z,26.30
2017-06-25T15:31:04.982Z,26.40
2017-06-25T15:33:33.335Z,26.40
2017-06-25T15:36:01.691Z,26.30
2017-06-25T15:38:30.011Z,26.10
2017-06-25T15:40:59.020Z,26.00
2017-06-25T15:43:27.360Z,25.70
2017-06-25T15:45:55.624Z,25.80
2017-06-25T15:48:23.858Z,25.90
2017-06-25T15:50:52.106Z,25.90
2017-06-25T15:53:20.644Z,25.80
2017-06-25T15:55:48.868Z,25.70
2017-06-25T15:58:17.170Z,25.60
2017-06-25T16:00:45.498Z,25.50
2017-06-25T16:03:13.731Z,25.40
2017-06-25T16:05:41.985Z,25.30
2017-06-25T16:08:10.267Z,25.40
2017-06-25T16:10:38.897Z,25.30
2017-06-25T16:13:07.189Z,25.30
2017-06-25T16:15:35.683Z,25.40
2017-06-25T16:18:03.922Z,25.40
2017-06-25T16:20:32.171Z,25.30
2017-06-25T16:23:00.511Z,25.20
2017-06-25T16:25:28.747Z,25.20
2017-06-25T16:27:57.838Z,25.20
2017-06-25T16:30:26.685Z,24.60
2017-06-25T16:32:55.332Z,23.40
2017-06-25T16:35:23.556Z,23.40
2017-06-25T16:37:51.936Z,23.10
2017-06-25T16:40:20.578Z,22.60
2017-06-25T16:42:48.816Z,22.60
2017-06-25T16:45:17.088Z,22.40
2017-06-25T16:47:45.327Z,22.40
2017-06-25T16:50:13.961Z,22.30
2017-06-25T16:52:42.263Z,22.30
2017-06-25T16:55:10.495Z,22.40
2017-06-25T16:57:38.817Z,22.60
2017-06-25T17:00:07.068Z,22.70
2017-06-25T17:02:35.305Z,22.60
2017-06-25T17:05:03.933Z,22.80
2017-06-25T17:07:32.226Z,22.80
2017-06-25T17:10:00.503Z,22.80
2017-06-25T17:12:29.001Z,22.60
2017-06-25T17:14:57.471Z,22.00
2017-06-25T17:17:25.699Z,21.60
2017-06-25T17:19:54.015Z,21.00
2017-06-25T17:22:22.586Z,20.90
2017-06-25T17:24:50.902Z,21.00
2017-06-25T17:27:19.150Z,21.30
2017-06-25T17:29:47.413Z,21.80
2017-06-25T17:32:15.657Z,22.10
2017-06-25T17:34:44.284Z,22.40
2017-06-25T17:37:12.590Z,22.40
2017-06-25T17:39:40.828Z,22.50
2017-06-25T17:42:09.118Z,22.20
2017-06-25T17:44:37.394Z,21.80
2017-06-25T17:47:05.648Z,21.40
2017-06-25T17:49:33.895Z,20.90
2017-06-25T17:52:02.184Z,20.60
2017-06-25T17:54:30.506Z,20.20
2017-06-25T17:56:58.744Z,19.90
2017-06-25T17:59:27.043Z,19.00
2017-06-25T18:01:55.306Z,18.70
2017-06-25T18:04:23.750Z,18.60
2017-06-25T18:06:52.397Z,18.40
2017-06-25T18:09:21.600Z,18.10
2017-06-25T18:11:50.018Z,18.10
2017-06-25T18:14:18.454Z,18.10
2017-06-25T18:16:47.606Z,18.20
2017-06-25T18:19:15.862Z,18.10
2017-06-25T18:21:44.693Z,18.40
2017-06-25T18:24:12.971Z,18.40
2017-06-25T18:26:41.225Z,18.50
2017-06-25T18:29:09.525Z,18.80
2017-06-25T18:31:38.375Z,19.00
2017-06-25T18:34:06.806Z,19.00
2017-06-25T18:36:35.085Z,19.10
2017-06-25T18:39:05.826Z,19.10
2017-06-25T18:41:34.901Z,19.10
2017-06-25T18:44:03.164Z,19.20
2017-06-25T18:46:31.426Z,19.50
2017-06-25T18:48:59.715Z,19.80
2017-06-25T18:51:28.465Z,19.40
2017-06-25T18:53:57.256Z,18.80
2017-06-25T18:56:26.585Z,18.80
2017-06-25T18:58:55.011Z,18.80
2017-06-25T19:01:23.286Z,18.90
2017-06-25T19:03:51.593Z,18.70
2017-06-25T19:06:20.062Z,18.70
2017-06-25T19:08:48.915Z,18.50
2017-06-25T19:11:17.171Z,18.50
2017-06-25T19:13:45.537Z,18.30
2017-06-25T19:16:14.030Z,18.10
2017-06-25T19:18:42.487Z,18.00
2017-06-25T19:21:10.807Z,17.70
2017-06-25T19:23:39.196Z,17.60
2017-06-25T19:26:07.844Z,17.40
2017-06-25T19:28:36.416Z,17.40
2017-06-25T19:31:04.819Z,17.40
2017-06-25T19:33:33.304Z,17.00
2017-06-25T19:36:01.747Z,17.00
2017-06-25T19:38:30.433Z,17.10
2017-06-25T19:41:00.023Z,17.20
2017-06-25T19:43:29.526Z,17.10
2017-06-25T19:45:57.973Z,17.10
2017-06-25T19:48:26.564Z,17.00
2017-06-25T19:50:54.833Z,17.00
2017-06-25T19:53:23.302Z,17.00
2017-06-25T19:55:51.759Z,17.00
2017-06-25T19:58:20.074Z,17.10
2017-06-25T20:00:48.428Z,17.10
2017-06-25T20:03:16.715Z,17.10
2017-06-25T20:05:45.211Z,17.10
2017-06-25T20:08:13.835Z,17.10
2017-06-25T20:10:42.393Z,17.10
2017-06-25T20:13:10.703Z,17.20
2017-06-25T20:15:38.966Z,17.10
2017-06-25T20:18:07.240Z,17.20
2017-06-25T20:20:35.913Z,17.40
2017-06-25T20:23:04.263Z,17.40
2017-06-25T20:25:32.475Z,17.50
2017-06-25T20:28:01.189Z,17.70
2017-06-25T20:30:29.896Z,17.90
2017-06-25T20:32:58.128Z,17.90
2017-06-25T20:35:26.449Z,18.20
2017-06-25T20:37:54.916Z,18.20
2017-06-25T20:40:23.660Z,18.20
2017-06-25T20:42:55.702Z,18.20
2017-06-25T20:45:24.442Z,17.80
2017-06-25T20:47:52.957Z,17.80
2017-06-25T20:50:21.856Z,17.30
2017-06-25T20:52:50.287Z,17.30
2017-06-25T20:55:20.324Z,17.20
2017-06-25T20:57:48.637Z,17.10
2017-06-25T21:00:16.969Z,17.10
2017-06-25T21:02:45.724Z,16.90
2017-06-25T21:05:14.377Z,16.90
2017-06-25T21:07:42.844Z,16.90
2017-06-25T21:10:11.252Z,16.90
2017-06-25T21:12:40.465Z,16.90
2017-06-25T21:15:09.117Z,17.00
2017-06-25T21:17:37.389Z,17.00
2017-06-25T21:20:06.071Z,17.30
2017-06-25T21:22:34.297Z,18.00
2017-06-25T21:25:02.567Z,18.60
2017-06-25T21:27:31.922Z,19.70
2017-06-25T21:30:00.144Z,19.80
2017-06-25T21:32:29.162Z,20.00
2017-06-25T21:34:57.625Z,20.20
2017-06-25T21:37:26.260Z,20.60
2017-06-25T21:39:54.540Z,20.60
2017-06-25T21:42:22.816Z,20.50
2017-06-25T21:44:51.143Z,20.50
2017-06-25T21:47:19.413Z,20.70
2017-06-25T21:49:47.762Z,21.10
2017-06-25T21:52:15.984Z,21.30
2017-06-25T21:54:44.559Z,21.30
2017-06-25T21:57:12.825Z,21.50
2017-06-25T21:59:41.568Z,21.30
2017-06-25T22:02:09.899Z,21.30
2017-06-25T22:04:38.633Z,21.20
2017-06-25T22:07:07.255Z,21.20
2017-06-25T22:09:35.601Z,21.30
2017-06-25T22:12:04.083Z,21.40
2017-06-25T22:14:32.684Z,21.30
2017-06-25T22:17:00.953Z,21.30
2017-06-25T22:19:29.548Z,21.20
2017-06-25T22:21:57.767Z,21.20
2017-06-25T22:24:26.015Z,21.10
2017-06-25T22:26:54.255Z,21.10
2017-06-25T22:29:22.503Z,21.20
2017-06-25T22:31:51.115Z,21.20
2017-06-25T22:34:19.349Z,21.10
2017-06-25T22:36:47.584Z,21.10
2017-06-25T22:39:16.258Z,21.00
2017-06-25T22:41:44.483Z,21.00
2017-06-25T22:44:12.792Z,21.00
2017-06-25T22:46:41.046Z,21.10
2017-06-25T22:49:09.279Z,21.20
2017-06-25T22:51:37.903Z,21.20
2017-06-25T22:54:06.179Z,21.20
2017-06-25T22:56:34.641Z,21.20
2017-06-25T22:59:02.859Z,21.20
2017-06-25T23:01:31.130Z,21.10
2017-06-25T23:03:59.363Z,21.00
2017-06-25T23:06:27.599Z,21.00
2017-06-25T23:08:55.880Z,21.00
2017-06-25T23:11:24.108Z,21.00
2017-06-25T23:13:52.344Z,21.00
2017-06-25T23:16:20.606Z,20.90
2017-06-25T23:18:48.848Z,20.80
2017-06-25T23:21:17.353Z,20.80
2017-06-25T23:23:45.631Z,20.80
2017-06-25T23:26:13.867Z,20.90
2017-06-25T23:28:42.112Z,20.90
2017-06-25T23:31:10.788Z,21.00
2017-06-25T23:33:40.028Z,21.00
2017-06-25T23:36:08.251Z,21.00
2017-06-25T23:38:36.521Z,21.10
2017-06-25T23:41:04.752Z,21.10
2017-06-25T23:43:32.980Z,21.20
2017-06-25T23:46:01.627Z,21.20
2017-06-25T23:48:29.860Z,21.30
2017-06-25T23:50:58.102Z,21.30
2017-06-25T23:53:26.372Z,21.30
2017-06-25T23:55:54.604Z,21.40
2017-06-25T23:58:22.844Z,21.40
